sensor_id;sensor_type;location;lat;lon;timestamp;P1;durP1;ratioP1;P2;durP2;ratioP2
1358;SDS011;673;48.098;14.422;2023-05-27T00:02:01;5.20;;;3.70;;
1358;SDS011;673;48.098;14.422;2023-05-27T00:04:29;5.20;;;4.63;;
1358;SDS011;673;48.098;14.422;2023-05-27T00:06:55;6.63;;;5.40;;
1358;SDS011;673;48.098;14.422;2023-05-27T00:09:22;5.00;;;4.23;;
1358;SDS011;673;48.098;14.422;2023-05-27T00:11:51;5.33;;;4.77;;
1358;SDS011;673;48.098;14.422;2023-05-27T00:14:18;6.23;;;4.13;;
1358;SDS011;673;48.098;14.422;2023-05-27T00:16:47;6.23;;;4.70;;
1358;SDS011;673;48.098;14.422;2023-05-27T00:19:14;4.33;;;3.97;;
1358;SDS011;673;48.098;14.422;2023-05-27T00:21:43;4.33;;;3.90;;
1358;SDS011;673;48.098;14.422;2023-05-27T00:24:10;3.83;;;3.47;;
1358;SDS011;673;48.098;14.422;2023-05-27T00:26:37;5.97;;;3.90;;
1358;SDS011;673;48.098;14.422;2023-05-27T00:29:05;3.57;;;2.53;;
1358;SDS011;673;48.098;14.422;2023-05-27T00:31:32;4.20;;;3.50;;
1358;SDS011;673;48.098;14.422;2023-05-27T00:33:59;6.43;;;4.37;;
1358;SDS011;673;48.098;14.422;2023-05-27T00:36:26;5.10;;;4.40;;
1358;SDS011;673;48.098;14.422;2023-05-27T00:38:53;6.20;;;4.37;;
1358;SDS011;673;48.098;14.422;2023-05-27T00:41:20;6.00;;;4.53;;
1358;SDS011;673;48.098;14.422;2023-05-27T00:43:48;6.10;;;4.07;;
1358;SDS011;673;48.098;14.422;2023-05-27T00:46:16;6.10;;;4.70;;
1358;SDS011;673;48.098;14.422;2023-05-27T00:48:45;6.53;;;4.53;;
1358;SDS011;673;48.098;14.422;2023-05-27T00:51:12;4.93;;;4.17;;
1358;SDS011;673;48.098;14.422;2023-05-27T00:53:40;5.47;;;3.83;;
1358;SDS011;673;48.098;14.422;2023-05-27T00:56:08;8.07;;;2.93;;
1358;SDS011;673;48.098;14.422;2023-05-27T00:58:35;6.47;;;3.63;;
1358;SDS011;673;48.098;14.422;2023-05-27T01:01:03;4.17;;;3.27;;
1358;SDS011;673;48.098;14.422;2023-05-27T01:03:33;7.53;;;4.50;;
1358;SDS011;673;48.098;14.422;2023-05-27T01:06:03;5.90;;;4.00;;
1358;SDS011;673;48.098;14.422;2023-05-27T01:08:40;4.60;;;3.60;;
1358;SDS011;673;48.098;14.422;2023-05-27T01:11:15;4.70;;;3.57;;
1358;SDS011;673;48.098;14.422;2023-05-27T01:13:50;7.03;;;4.40;;
1358;SDS011;673;48.098;14.422;2023-05-27T01:16:21;4.73;;;3.40;;
1358;SDS011;673;48.098;14.422;2023-05-27T01:18:51;7.10;;;3.20;;
1358;SDS011;673;48.098;14.422;2023-05-27T01:21:22;4.90;;;3.93;;
1358;SDS011;673;48.098;14.422;2023-05-27T01:23:52;5.87;;;3.47;;
1358;SDS011;673;48.098;14.422;2023-05-27T01:26:19;8.13;;;3.83;;
1358;SDS011;673;48.098;14.422;2023-05-27T01:28:45;6.70;;;4.03;;
1358;SDS011;673;48.098;14.422;2023-05-27T01:31:13;9.00;;;4.20;;
1358;SDS011;673;48.098;14.422;2023-05-27T01:33:46;11.90;;;4.57;;
1358;SDS011;673;48.098;14.422;2023-05-27T01:36:22;6.50;;;5.00;;
1358;SDS011;673;48.098;14.422;2023-05-27T01:38:54;3.97;;;3.43;;
1358;SDS011;673;48.098;14.422;2023-05-27T01:41:23;5.43;;;4.30;;
1358;SDS011;673;48.098;14.422;2023-05-27T01:43:51;4.43;;;3.80;;
1358;SDS011;673;48.098;14.422;2023-05-27T01:46:19;4.20;;;3.70;;
1358;SDS011;673;48.098;14.422;2023-05-27T01:48:46;7.87;;;4.17;;
1358;SDS011;673;48.098;14.422;2023-05-27T01:51:14;8.87;;;4.10;;
1358;SDS011;673;48.098;14.422;2023-05-27T01:53:41;6.10;;;4.33;;
1358;SDS011;673;48.098;14.422;2023-05-27T01:56:09;4.37;;;3.80;;
1358;SDS011;673;48.098;14.422;2023-05-27T01:58:36;6.93;;;4.67;;
1358;SDS011;673;48.098;14.422;2023-05-27T02:01:03;6.10;;;4.23;;
1358;SDS011;673;48.098;14.422;2023-05-27T02:03:30;4.70;;;4.30;;
1358;SDS011;673;48.098;14.422;2023-05-27T02:05:57;6.63;;;4.33;;
1358;SDS011;673;48.098;14.422;2023-05-27T02:08:24;7.40;;;4.83;;
1358;SDS011;673;48.098;14.422;2023-05-27T02:10:52;5.03;;;3.50;;
1358;SDS011;673;48.098;14.422;2023-05-27T02:13:21;6.17;;;4.60;;
1358;SDS011;673;48.098;14.422;2023-05-27T02:15:48;6.00;;;4.50;;
1358;SDS011;673;48.098;14.422;2023-05-27T02:18:16;6.67;;;3.57;;
1358;SDS011;673;48.098;14.422;2023-05-27T02:20:46;5.57;;;3.60;;
1358;SDS011;673;48.098;14.422;2023-05-27T02:23:13;6.80;;;4.13;;
1358;SDS011;673;48.098;14.422;2023-05-27T02:25:40;6.90;;;3.83;;
1358;SDS011;673;48.098;14.422;2023-05-27T02:28:07;9.80;;;4.80;;
1358;SDS011;673;48.098;14.422;2023-05-27T02:30:35;5.93;;;3.57;;
1358;SDS011;673;48.098;14.422;2023-05-27T02:33:02;9.73;;;4.47;;
1358;SDS011;673;48.098;14.422;2023-05-27T02:35:29;6.87;;;4.33;;
1358;SDS011;673;48.098;14.422;2023-05-27T02:37:56;5.30;;;4.80;;
1358;SDS011;673;48.098;14.422;2023-05-27T02:40:24;5.63;;;4.00;;
1358;SDS011;673;48.098;14.422;2023-05-27T02:42:51;7.40;;;5.20;;
1358;SDS011;673;48.098;14.422;2023-05-27T02:45:18;10.47;;;5.87;;
1358;SDS011;673;48.098;14.422;2023-05-27T02:47:46;4.07;;;3.57;;
1358;SDS011;673;48.098;14.422;2023-05-27T02:50:13;4.23;;;3.90;;
1358;SDS011;673;48.098;14.422;2023-05-27T02:52:40;9.03;;;4.87;;
1358;SDS011;673;48.098;14.422;2023-05-27T02:55:07;7.90;;;4.63;;
1358;SDS011;673;48.098;14.422;2023-05-27T02:57:35;4.87;;;4.37;;
1358;SDS011;673;48.098;14.422;2023-05-27T03:00:02;6.23;;;4.17;;
1358;SDS011;673;48.098;14.422;2023-05-27T03:02:33;7.13;;;4.20;;
1358;SDS011;673;48.098;14.422;2023-05-27T03:05:02;4.70;;;4.30;;
1358;SDS011;673;48.098;14.422;2023-05-27T03:07:30;7.00;;;3.67;;
1358;SDS011;673;48.098;14.422;2023-05-27T03:09:57;5.53;;;3.90;;
1358;SDS011;673;48.098;14.422;2023-05-27T03:12:24;4.80;;;4.30;;
1358;SDS011;673;48.098;14.422;2023-05-27T03:14:52;9.40;;;4.97;;
1358;SDS011;673;48.098;14.422;2023-05-27T03:17:19;11.23;;;4.93;;
1358;SDS011;673;48.098;14.422;2023-05-27T03:19:46;7.37;;;4.50;;
1358;SDS011;673;48.098;14.422;2023-05-27T03:22:14;4.47;;;4.00;;
1358;SDS011;673;48.098;14.422;2023-05-27T03:24:41;4.60;;;3.97;;
1358;SDS011;673;48.098;14.422;2023-05-27T03:27:09;6.93;;;4.20;;
1358;SDS011;673;48.098;14.422;2023-05-27T03:29:37;4.77;;;3.83;;
1358;SDS011;673;48.098;14.422;2023-05-27T03:32:04;5.37;;;3.50;;
1358;SDS011;673;48.098;14.422;2023-05-27T03:34:31;7.30;;;4.93;;
1358;SDS011;673;48.098;14.422;2023-05-27T03:36:58;5.70;;;4.33;;
1358;SDS011;673;48.098;14.422;2023-05-27T03:39:26;8.23;;;4.43;;
1358;SDS011;673;48.098;14.422;2023-05-27T03:41:53;9.13;;;3.60;;
1358;SDS011;673;48.098;14.422;2023-05-27T03:44:20;4.73;;;3.87;;
1358;SDS011;673;48.098;14.422;2023-05-27T03:46:48;7.87;;;4.67;;
1358;SDS011;673;48.098;14.422;2023-05-27T03:49:15;4.80;;;3.63;;
1358;SDS011;673;48.098;14.422;2023-05-27T03:51:42;9.60;;;4.40;;
1358;SDS011;673;48.098;14.422;2023-05-27T03:54:09;6.93;;;4.07;;
1358;SDS011;673;48.098;14.422;2023-05-27T03:56:37;4.93;;;4.00;;
1358;SDS011;673;48.098;14.422;2023-05-27T03:59:04;5.13;;;4.30;;
1358;SDS011;673;48.098;14.422;2023-05-27T04:01:32;8.43;;;4.83;;
1358;SDS011;673;48.098;14.422;2023-05-27T04:03:59;5.37;;;4.13;;
1358;SDS011;673;48.098;14.422;2023-05-27T04:06:26;4.57;;;3.90;;
1358;SDS011;673;48.098;14.422;2023-05-27T04:08:53;6.93;;;4.93;;
1358;SDS011;673;48.098;14.422;2023-05-27T04:11:20;4.87;;;4.40;;
1358;SDS011;673;48.098;14.422;2023-05-27T04:13:49;10.33;;;4.50;;
1358;SDS011;673;48.098;14.422;2023-05-27T04:16:16;8.43;;;4.70;;
1358;SDS011;673;48.098;14.422;2023-05-27T04:18:43;4.70;;;4.30;;
1358;SDS011;673;48.098;14.422;2023-05-27T04:21:14;7.87;;;4.87;;
1358;SDS011;673;48.098;14.422;2023-05-27T04:23:41;7.93;;;4.20;;
1358;SDS011;673;48.098;14.422;2023-05-27T04:26:08;6.30;;;4.50;;
1358;SDS011;673;48.098;14.422;2023-05-27T04:28:35;9.77;;;5.40;;
1358;SDS011;673;48.098;14.422;2023-05-27T04:31:05;6.90;;;3.87;;
1358;SDS011;673;48.098;14.422;2023-05-27T04:33:37;6.00;;;3.77;;
1358;SDS011;673;48.098;14.422;2023-05-27T04:36:05;7.63;;;4.33;;
1358;SDS011;673;48.098;14.422;2023-05-27T04:38:32;7.40;;;4.30;;
1358;SDS011;673;48.098;14.422;2023-05-27T04:40:59;9.37;;;3.60;;
1358;SDS011;673;48.098;14.422;2023-05-27T04:43:26;6.10;;;4.00;;
1358;SDS011;673;48.098;14.422;2023-05-27T04:45:54;5.20;;;4.30;;
1358;SDS011;673;48.098;14.422;2023-05-27T04:48:25;4.27;;;3.97;;
1358;SDS011;673;48.098;14.422;2023-05-27T04:50:53;7.93;;;4.73;;
1358;SDS011;673;48.098;14.422;2023-05-27T04:53:20;5.80;;;4.80;;
1358;SDS011;673;48.098;14.422;2023-05-27T04:55:48;5.70;;;4.00;;
1358;SDS011;673;48.098;14.422;2023-05-27T04:58:16;6.00;;;4.63;;
1358;SDS011;673;48.098;14.422;2023-05-27T05:00:43;6.37;;;4.67;;
1358;SDS011;673;48.098;14.422;2023-05-27T05:03:18;12.90;;;5.60;;
1358;SDS011;673;48.098;14.422;2023-05-27T05:05:49;13.13;;;5.60;;
1358;SDS011;673;48.098;14.422;2023-05-27T05:08:16;12.47;;;5.90;;
1358;SDS011;673;48.098;14.422;2023-05-27T05:10:45;5.73;;;5.23;;
1358;SDS011;673;48.098;14.422;2023-05-27T05:13:12;5.30;;;4.80;;
1358;SDS011;673;48.098;14.422;2023-05-27T05:15:41;7.47;;;5.67;;
1358;SDS011;673;48.098;14.422;2023-05-27T05:18:09;8.47;;;5.13;;
1358;SDS011;673;48.098;14.422;2023-05-27T05:20:36;9.80;;;4.80;;
1358;SDS011;673;48.098;14.422;2023-05-27T05:23:05;8.37;;;5.67;;
1358;SDS011;673;48.098;14.422;2023-05-27T05:25:32;5.57;;;5.07;;
1358;SDS011;673;48.098;14.422;2023-05-27T05:28:03;5.63;;;4.60;;
1358;SDS011;673;48.098;14.422;2023-05-27T05:30:30;9.90;;;5.90;;
1358;SDS011;673;48.098;14.422;2023-05-27T05:32:57;8.00;;;5.30;;
1358;SDS011;673;48.098;14.422;2023-05-27T05:35:24;6.40;;;4.90;;
1358;SDS011;673;48.098;14.422;2023-05-27T05:37:51;5.10;;;4.70;;
1358;SDS011;673;48.098;14.422;2023-05-27T05:40:21;7.40;;;4.90;;
1358;SDS011;673;48.098;14.422;2023-05-27T05:42:48;6.03;;;5.03;;
1358;SDS011;673;48.098;14.422;2023-05-27T05:45:15;7.20;;;5.57;;
1358;SDS011;673;48.098;14.422;2023-05-27T05:47:42;6.53;;;5.17;;
1358;SDS011;673;48.098;14.422;2023-05-27T05:50:09;11.87;;;5.90;;
1358;SDS011;673;48.098;14.422;2023-05-27T05:52:36;7.27;;;5.60;;
1358;SDS011;673;48.098;14.422;2023-05-27T05:55:03;11.00;;;7.00;;
1358;SDS011;673;48.098;14.422;2023-05-27T05:57:33;7.37;;;6.00;;
1358;SDS011;673;48.098;14.422;2023-05-27T06:00:00;5.93;;;5.43;;
1358;SDS011;673;48.098;14.422;2023-05-27T06:02:27;11.03;;;6.20;;
1358;SDS011;673;48.098;14.422;2023-05-27T06:04:54;7.30;;;5.80;;
1358;SDS011;673;48.098;14.422;2023-05-27T06:07:21;7.63;;;6.43;;
1358;SDS011;673;48.098;14.422;2023-05-27T06:09:48;8.67;;;5.60;;
1358;SDS011;673;48.098;14.422;2023-05-27T06:12:15;10.70;;;4.90;;
1358;SDS011;673;48.098;14.422;2023-05-27T06:14:43;8.40;;;5.37;;
1358;SDS011;673;48.098;14.422;2023-05-27T06:17:12;11.13;;;5.60;;
1358;SDS011;673;48.098;14.422;2023-05-27T06:19:39;10.33;;;4.77;;
1358;SDS011;673;48.098;14.422;2023-05-27T06:22:06;9.93;;;5.87;;
1358;SDS011;673;48.098;14.422;2023-05-27T06:24:33;6.73;;;4.23;;
1358;SDS011;673;48.098;14.422;2023-05-27T06:27:00;5.20;;;4.80;;
1358;SDS011;673;48.098;14.422;2023-05-27T06:29:27;5.97;;;4.47;;
1358;SDS011;673;48.098;14.422;2023-05-27T06:31:55;6.83;;;4.30;;
1358;SDS011;673;48.098;14.422;2023-05-27T06:34:22;5.93;;;4.30;;
1358;SDS011;673;48.098;14.422;2023-05-27T06:36:49;5.43;;;3.60;;
1358;SDS011;673;48.098;14.422;2023-05-27T06:39:16;4.90;;;3.97;;
1358;SDS011;673;48.098;14.422;2023-05-27T06:41:43;5.60;;;4.27;;
1358;SDS011;673;48.098;14.422;2023-05-27T06:44:10;5.83;;;3.70;;
1358;SDS011;673;48.098;14.422;2023-05-27T06:46:37;5.73;;;3.87;;
1358;SDS011;673;48.098;14.422;2023-05-27T06:49:05;10.47;;;4.00;;
1358;SDS011;673;48.098;14.422;2023-05-27T06:51:32;7.70;;;4.47;;
1358;SDS011;673;48.098;14.422;2023-05-27T06:53:59;6.70;;;3.27;;
1358;SDS011;673;48.098;14.422;2023-05-27T06:56:26;5.93;;;2.80;;
1358;SDS011;673;48.098;14.422;2023-05-27T06:58:53;5.40;;;2.57;;
1358;SDS011;673;48.098;14.422;2023-05-27T07:01:20;5.40;;;2.53;;
1358;SDS011;673;48.098;14.422;2023-05-27T07:03:47;6.40;;;2.77;;
1358;SDS011;673;48.098;14.422;2023-05-27T07:06:15;4.40;;;3.70;;
1358;SDS011;673;48.098;14.422;2023-05-27T07:08:43;5.60;;;2.53;;
1358;SDS011;673;48.098;14.422;2023-05-27T07:11:10;5.63;;;2.57;;
1358;SDS011;673;48.098;14.422;2023-05-27T07:13:37;5.47;;;2.70;;
1358;SDS011;673;48.098;14.422;2023-05-27T07:16:04;6.07;;;2.70;;
1358;SDS011;673;48.098;14.422;2023-05-27T07:18:31;6.03;;;2.70;;
1358;SDS011;673;48.098;14.422;2023-05-27T07:20:58;4.07;;;2.70;;
1358;SDS011;673;48.098;14.422;2023-05-27T07:23:26;3.40;;;2.17;;
1358;SDS011;673;48.098;14.422;2023-05-27T07:25:53;7.07;;;2.90;;
1358;SDS011;673;48.098;14.422;2023-05-27T07:28:20;4.40;;;2.47;;
1358;SDS011;673;48.098;14.422;2023-05-27T07:30:47;3.13;;;2.20;;
1358;SDS011;673;48.098;14.422;2023-05-27T07:33:14;7.80;;;4.80;;
1358;SDS011;673;48.098;14.422;2023-05-27T07:35:41;9.47;;;3.00;;
1358;SDS011;673;48.098;14.422;2023-05-27T07:38:08;7.63;;;2.60;;
1358;SDS011;673;48.098;14.422;2023-05-27T07:40:37;2.30;;;1.73;;
1358;SDS011;673;48.098;14.422;2023-05-27T07:43:04;3.17;;;2.20;;
1358;SDS011;673;48.098;14.422;2023-05-27T07:45:31;6.00;;;3.30;;
1358;SDS011;673;48.098;14.422;2023-05-27T07:47:58;4.07;;;2.60;;
1358;SDS011;673;48.098;14.422;2023-05-27T07:50:25;3.03;;;2.40;;
1358;SDS011;673;48.098;14.422;2023-05-27T07:52:52;8.60;;;2.10;;
1358;SDS011;673;48.098;14.422;2023-05-27T07:55:19;9.43;;;3.70;;
1358;SDS011;673;48.098;14.422;2023-05-27T07:57:47;4.00;;;1.43;;
1358;SDS011;673;48.098;14.422;2023-05-27T08:00:14;5.53;;;2.13;;
1358;SDS011;673;48.098;14.422;2023-05-27T08:02:42;3.60;;;2.20;;
1358;SDS011;673;48.098;14.422;2023-05-27T08:05:09;7.97;;;2.57;;
1358;SDS011;673;48.098;14.422;2023-05-27T08:07:36;5.20;;;2.10;;
1358;SDS011;673;48.098;14.422;2023-05-27T08:10:03;3.53;;;2.10;;
1358;SDS011;673;48.098;14.422;2023-05-27T08:12:31;6.57;;;2.33;;
1358;SDS011;673;48.098;14.422;2023-05-27T08:14:59;10.83;;;2.50;;
1358;SDS011;673;48.098;14.422;2023-05-27T08:17:26;4.87;;;2.53;;
1358;SDS011;673;48.098;14.422;2023-05-27T08:19:53;8.07;;;2.43;;
1358;SDS011;673;48.098;14.422;2023-05-27T08:22:20;7.53;;;2.33;;
1358;SDS011;673;48.098;14.422;2023-05-27T08:24:47;4.90;;;2.37;;
1358;SDS011;673;48.098;14.422;2023-05-27T08:27:14;5.10;;;2.20;;
1358;SDS011;673;48.098;14.422;2023-05-27T08:29:43;5.83;;;2.20;;
1358;SDS011;673;48.098;14.422;2023-05-27T08:32:12;3.57;;;1.97;;
1358;SDS011;673;48.098;14.422;2023-05-27T08:34:38;5.20;;;2.03;;
1358;SDS011;673;48.098;14.422;2023-05-27T08:37:06;4.43;;;2.37;;
1358;SDS011;673;48.098;14.422;2023-05-27T08:39:33;4.17;;;2.37;;
1358;SDS011;673;48.098;14.422;2023-05-27T08:42:00;3.83;;;2.13;;
1358;SDS011;673;48.098;14.422;2023-05-27T08:44:28;4.60;;;2.33;;
1358;SDS011;673;48.098;14.422;2023-05-27T08:46:55;6.87;;;3.70;;
1358;SDS011;673;48.098;14.422;2023-05-27T08:49:25;4.73;;;1.90;;
1358;SDS011;673;48.098;14.422;2023-05-27T08:51:52;4.07;;;2.47;;
1358;SDS011;673;48.098;14.422;2023-05-27T08:54:21;4.00;;;2.07;;
1358;SDS011;673;48.098;14.422;2023-05-27T08:56:49;5.70;;;2.40;;
1358;SDS011;673;48.098;14.422;2023-05-27T08:59:19;6.10;;;1.70;;
1358;SDS011;673;48.098;14.422;2023-05-27T09:01:47;6.07;;;2.17;;
1358;SDS011;673;48.098;14.422;2023-05-27T09:04:15;4.83;;;2.00;;
1358;SDS011;673;48.098;14.422;2023-05-27T09:06:43;5.90;;;2.60;;
1358;SDS011;673;48.098;14.422;2023-05-27T09:09:10;5.13;;;3.33;;
1358;SDS011;673;48.098;14.422;2023-05-27T09:11:38;4.90;;;2.20;;
1358;SDS011;673;48.098;14.422;2023-05-27T09:14:06;11.47;;;2.80;;
1358;SDS011;673;48.098;14.422;2023-05-27T09:16:33;7.70;;;1.93;;
1358;SDS011;673;48.098;14.422;2023-05-27T09:19:00;5.63;;;2.17;;
1358;SDS011;673;48.098;14.422;2023-05-27T09:21:27;5.53;;;2.43;;
1358;SDS011;673;48.098;14.422;2023-05-27T09:23:56;5.90;;;2.47;;
1358;SDS011;673;48.098;14.422;2023-05-27T09:26:24;9.10;;;2.37;;
1358;SDS011;673;48.098;14.422;2023-05-27T09:28:51;9.07;;;2.60;;
1358;SDS011;673;48.098;14.422;2023-05-27T09:31:18;7.03;;;3.10;;
1358;SDS011;673;48.098;14.422;2023-05-27T09:33:48;5.53;;;2.23;;
1358;SDS011;673;48.098;14.422;2023-05-27T09:36:19;4.33;;;2.90;;
1358;SDS011;673;48.098;14.422;2023-05-27T09:38:47;5.40;;;2.00;;
1358;SDS011;673;48.098;14.422;2023-05-27T09:41:22;8.67;;;2.93;;
1358;SDS011;673;48.098;14.422;2023-05-27T09:43:53;5.20;;;2.20;;
1358;SDS011;673;48.098;14.422;2023-05-27T09:46:21;4.57;;;2.00;;
1358;SDS011;673;48.098;14.422;2023-05-27T09:48:49;8.10;;;2.40;;
1358;SDS011;673;48.098;14.422;2023-05-27T09:51:16;5.73;;;3.57;;
1358;SDS011;673;48.098;14.422;2023-05-27T09:53:43;6.90;;;2.47;;
1358;SDS011;673;48.098;14.422;2023-05-27T09:56:12;10.17;;;2.63;;
1358;SDS011;673;48.098;14.422;2023-05-27T09:58:41;7.93;;;2.73;;
1358;SDS011;673;48.098;14.422;2023-05-27T10:01:09;3.87;;;1.70;;
1358;SDS011;673;48.098;14.422;2023-05-27T10:03:36;5.10;;;2.20;;
1358;SDS011;673;48.098;14.422;2023-05-27T10:06:07;5.00;;;2.90;;
1358;SDS011;673;48.098;14.422;2023-05-27T10:08:36;4.00;;;2.60;;
1358;SDS011;673;48.098;14.422;2023-05-27T10:11:03;8.80;;;3.00;;
1358;SDS011;673;48.098;14.422;2023-05-27T10:13:31;3.23;;;2.00;;
1358;SDS011;673;48.098;14.422;2023-05-27T10:16:00;8.53;;;3.00;;
1358;SDS011;673;48.098;14.422;2023-05-27T10:18:27;5.37;;;1.97;;
1358;SDS011;673;48.098;14.422;2023-05-27T10:20:56;5.93;;;2.23;;
1358;SDS011;673;48.098;14.422;2023-05-27T10:23:25;3.00;;;2.00;;
1358;SDS011;673;48.098;14.422;2023-05-27T10:25:53;7.03;;;3.00;;
1358;SDS011;673;48.098;14.422;2023-05-27T10:28:25;3.30;;;2.37;;
1358;SDS011;673;48.098;14.422;2023-05-27T10:30:53;4.50;;;2.13;;
1358;SDS011;673;48.098;14.422;2023-05-27T10:33:33;7.30;;;3.00;;
1358;SDS011;673;48.098;14.422;2023-05-27T10:36:05;6.67;;;2.43;;
1358;SDS011;673;48.098;14.422;2023-05-27T10:38:33;9.93;;;2.10;;
1358;SDS011;673;48.098;14.422;2023-05-27T10:41:01;4.10;;;2.60;;
1358;SDS011;673;48.098;14.422;2023-05-27T10:43:29;5.80;;;2.67;;
1358;SDS011;673;48.098;14.422;2023-05-27T10:46:04;7.60;;;2.90;;
1358;SDS011;673;48.098;14.422;2023-05-27T10:48:34;7.60;;;2.67;;
1358;SDS011;673;48.098;14.422;2023-05-27T10:51:02;3.30;;;2.03;;
1358;SDS011;673;48.098;14.422;2023-05-27T10:53:29;7.03;;;2.90;;
1358;SDS011;673;48.098;14.422;2023-05-27T10:55:57;5.27;;;2.50;;
1358;SDS011;673;48.098;14.422;2023-05-27T10:58:25;8.83;;;2.97;;
1358;SDS011;673;48.098;14.422;2023-05-27T11:00:53;9.67;;;2.53;;
1358;SDS011;673;48.098;14.422;2023-05-27T11:03:23;5.20;;;2.00;;
1358;SDS011;673;48.098;14.422;2023-05-27T11:06:01;6.13;;;2.27;;
1358;SDS011;673;48.098;14.422;2023-05-27T11:08:30;6.70;;;2.97;;
1358;SDS011;673;48.098;14.422;2023-05-27T11:11:01;6.30;;;2.23;;
1358;SDS011;673;48.098;14.422;2023-05-27T11:13:32;8.57;;;2.70;;
1358;SDS011;673;48.098;14.422;2023-05-27T11:16:02;8.33;;;3.90;;
1358;SDS011;673;48.098;14.422;2023-05-27T11:18:38;4.77;;;2.30;;
1358;SDS011;673;48.098;14.422;2023-05-27T11:21:06;4.73;;;3.03;;
1358;SDS011;673;48.098;14.422;2023-05-27T11:23:35;2.97;;;2.07;;
1358;SDS011;673;48.098;14.422;2023-05-27T11:26:04;3.80;;;2.00;;
1358;SDS011;673;48.098;14.422;2023-05-27T11:28:37;6.27;;;2.33;;
1358;SDS011;673;48.098;14.422;2023-05-27T11:31:04;3.60;;;2.27;;
1358;SDS011;673;48.098;14.422;2023-05-27T11:33:31;6.60;;;3.10;;
1358;SDS011;673;48.098;14.422;2023-05-27T11:36:06;8.13;;;2.40;;
1358;SDS011;673;48.098;14.422;2023-05-27T11:38:46;4.73;;;2.43;;
1358;SDS011;673;48.098;14.422;2023-05-27T11:41:17;8.10;;;2.80;;
1358;SDS011;673;48.098;14.422;2023-05-27T11:43:48;4.17;;;2.20;;
1358;SDS011;673;48.098;14.422;2023-05-27T11:46:16;4.63;;;2.20;;
1358;SDS011;673;48.098;14.422;2023-05-27T11:48:43;6.60;;;2.50;;
1358;SDS011;673;48.098;14.422;2023-05-27T11:51:12;9.50;;;2.53;;
1358;SDS011;673;48.098;14.422;2023-05-27T11:53:39;4.13;;;2.27;;
1358;SDS011;673;48.098;14.422;2023-05-27T11:56:07;7.17;;;2.67;;
1358;SDS011;673;48.098;14.422;2023-05-27T11:58:34;4.27;;;2.07;;
1358;SDS011;673;48.098;14.422;2023-05-27T12:01:02;4.27;;;2.63;;
1358;SDS011;673;48.098;14.422;2023-05-27T12:03:30;3.80;;;2.13;;
1358;SDS011;673;48.098;14.422;2023-05-27T12:05:59;4.83;;;2.20;;
1358;SDS011;673;48.098;14.422;2023-05-27T12:08:27;3.50;;;2.57;;
1358;SDS011;673;48.098;14.422;2023-05-27T12:10:54;6.37;;;2.23;;
1358;SDS011;673;48.098;14.422;2023-05-27T12:13:21;4.60;;;2.43;;
1358;SDS011;673;48.098;14.422;2023-05-27T12:15:48;1.80;;;1.70;;
1358;SDS011;673;48.098;14.422;2023-05-27T12:18:16;4.23;;;2.30;;
1358;SDS011;673;48.098;14.422;2023-05-27T12:20:43;8.00;;;3.23;;
1358;SDS011;673;48.098;14.422;2023-05-27T12:23:10;4.50;;;2.50;;
1358;SDS011;673;48.098;14.422;2023-05-27T12:25:39;6.43;;;2.70;;
1358;SDS011;673;48.098;14.422;2023-05-27T12:28:07;7.37;;;2.93;;
1358;SDS011;673;48.098;14.422;2023-05-27T12:30:34;3.47;;;2.20;;
1358;SDS011;673;48.098;14.422;2023-05-27T12:33:02;4.87;;;2.60;;
1358;SDS011;673;48.098;14.422;2023-05-27T12:35:29;8.53;;;3.40;;
1358;SDS011;673;48.098;14.422;2023-05-27T12:37:57;5.73;;;2.07;;
1358;SDS011;673;48.098;14.422;2023-05-27T12:40:24;5.93;;;2.53;;
1358;SDS011;673;48.098;14.422;2023-05-27T12:42:52;3.03;;;2.30;;
1358;SDS011;673;48.098;14.422;2023-05-27T12:45:19;7.43;;;2.30;;
1358;SDS011;673;48.098;14.422;2023-05-27T12:47:49;6.13;;;2.23;;
1358;SDS011;673;48.098;14.422;2023-05-27T12:50:16;5.07;;;2.00;;
1358;SDS011;673;48.098;14.422;2023-05-27T12:52:43;4.23;;;2.47;;
1358;SDS011;673;48.098;14.422;2023-05-27T12:55:12;4.47;;;2.20;;
1358;SDS011;673;48.098;14.422;2023-05-27T12:57:39;4.10;;;1.90;;
1358;SDS011;673;48.098;14.422;2023-05-27T13:00:08;9.03;;;2.67;;
1358;SDS011;673;48.098;14.422;2023-05-27T13:02:36;6.10;;;2.20;;
1358;SDS011;673;48.098;14.422;2023-05-27T13:05:04;5.23;;;2.30;;
1358;SDS011;673;48.098;14.422;2023-05-27T13:07:31;3.57;;;2.30;;
1358;SDS011;673;48.098;14.422;2023-05-27T13:09:59;2.97;;;2.30;;
1358;SDS011;673;48.098;14.422;2023-05-27T13:12:27;4.90;;;2.40;;
1358;SDS011;673;48.098;14.422;2023-05-27T13:14:55;5.00;;;2.27;;
1358;SDS011;673;48.098;14.422;2023-05-27T13:17:24;4.40;;;2.30;;
1358;SDS011;673;48.098;14.422;2023-05-27T13:19:51;3.90;;;2.20;;
1358;SDS011;673;48.098;14.422;2023-05-27T13:22:18;3.70;;;1.87;;
1358;SDS011;673;48.098;14.422;2023-05-27T13:24:46;7.40;;;3.30;;
1358;SDS011;673;48.098;14.422;2023-05-27T13:27:13;4.70;;;2.57;;
1358;SDS011;673;48.098;14.422;2023-05-27T13:29:40;2.93;;;1.80;;
1358;SDS011;673;48.098;14.422;2023-05-27T13:32:08;5.67;;;2.47;;
1358;SDS011;673;48.098;14.422;2023-05-27T13:34:36;4.77;;;2.57;;
1358;SDS011;673;48.098;14.422;2023-05-27T13:37:03;3.73;;;2.07;;
1358;SDS011;673;48.098;14.422;2023-05-27T13:39:30;3.33;;;1.63;;
1358;SDS011;673;48.098;14.422;2023-05-27T13:41:57;4.37;;;2.40;;
1358;SDS011;673;48.098;14.422;2023-05-27T13:44:25;5.23;;;2.10;;
1358;SDS011;673;48.098;14.422;2023-05-27T13:46:52;7.07;;;2.67;;
1358;SDS011;673;48.098;14.422;2023-05-27T13:49:19;4.73;;;2.67;;
1358;SDS011;673;48.098;14.422;2023-05-27T13:51:48;5.87;;;2.60;;
1358;SDS011;673;48.098;14.422;2023-05-27T13:54:15;4.43;;;2.03;;
1358;SDS011;673;48.098;14.422;2023-05-27T13:56:42;4.40;;;2.13;;
1358;SDS011;673;48.098;14.422;2023-05-27T13:59:08;4.67;;;2.07;;
1358;SDS011;673;48.098;14.422;2023-05-27T14:01:35;6.10;;;2.00;;
1358;SDS011;673;48.098;14.422;2023-05-27T14:04:02;6.33;;;1.93;;
1358;SDS011;673;48.098;14.422;2023-05-27T14:06:29;2.97;;;1.83;;
1358;SDS011;673;48.098;14.422;2023-05-27T14:08:58;4.80;;;1.77;;
1358;SDS011;673;48.098;14.422;2023-05-27T14:11:25;2.97;;;2.30;;
1358;SDS011;673;48.098;14.422;2023-05-27T14:13:52;2.97;;;2.20;;
1358;SDS011;673;48.098;14.422;2023-05-27T14:16:20;5.23;;;2.00;;
1358;SDS011;673;48.098;14.422;2023-05-27T14:18:47;5.43;;;1.60;;
1358;SDS011;673;48.098;14.422;2023-05-27T14:21:15;4.53;;;1.57;;
1358;SDS011;673;48.098;14.422;2023-05-27T14:23:42;3.20;;;2.50;;
1358;SDS011;673;48.098;14.422;2023-05-27T14:26:11;3.40;;;2.60;;
1358;SDS011;673;48.098;14.422;2023-05-27T14:28:38;6.90;;;2.13;;
1358;SDS011;673;48.098;14.422;2023-05-27T14:31:05;3.43;;;2.03;;
1358;SDS011;673;48.098;14.422;2023-05-27T14:33:31;5.93;;;2.07;;
1358;SDS011;673;48.098;14.422;2023-05-27T14:35:59;8.17;;;2.60;;
1358;SDS011;673;48.098;14.422;2023-05-27T14:38:26;3.40;;;2.40;;
1358;SDS011;673;48.098;14.422;2023-05-27T14:40:53;7.87;;;2.60;;
1358;SDS011;673;48.098;14.422;2023-05-27T14:43:22;6.23;;;2.23;;
1358;SDS011;673;48.098;14.422;2023-05-27T14:45:49;5.83;;;2.10;;
1358;SDS011;673;48.098;14.422;2023-05-27T14:48:16;4.13;;;1.80;;
1358;SDS011;673;48.098;14.422;2023-05-27T14:50:43;6.60;;;2.37;;
1358;SDS011;673;48.098;14.422;2023-05-27T14:53:10;12.03;;;2.57;;
1358;SDS011;673;48.098;14.422;2023-05-27T14:55:37;2.60;;;1.80;;
1358;SDS011;673;48.098;14.422;2023-05-27T14:58:04;4.83;;;2.37;;
1358;SDS011;673;48.098;14.422;2023-05-27T15:00:33;2.80;;;2.27;;
1358;SDS011;673;48.098;14.422;2023-05-27T15:03:00;7.63;;;2.13;;
1358;SDS011;673;48.098;14.422;2023-05-27T15:05:27;4.70;;;2.23;;
1358;SDS011;673;48.098;14.422;2023-05-27T15:07:53;4.40;;;2.23;;
1358;SDS011;673;48.098;14.422;2023-05-27T15:10:20;3.87;;;1.90;;
1358;SDS011;673;48.098;14.422;2023-05-27T15:12:47;3.83;;;2.13;;
1358;SDS011;673;48.098;14.422;2023-05-27T15:15:15;3.70;;;1.87;;
1358;SDS011;673;48.098;14.422;2023-05-27T15:17:45;4.20;;;2.23;;
1358;SDS011;673;48.098;14.422;2023-05-27T15:20:13;3.00;;;2.10;;